Time;durP1;ratioP1;P1;durP2;ratioP2;P2;SDS_P1;SDS_P2;PMS_P1;PMS_P2;Temp;Humidity;BMP_temperature;BMP_pressure;BME280_temperature;BME280_humidity;BME280_pressure;Samples;Min_cycle;Max_cycle;Signal;HPM_P1;HPM_P2
2021/03/12 00:00:37;;;;;;;16.08;3.20;;;6.70;99.90;;;;;;5001808;28;20041;-72
2021/03/12 00:03:05;;;;;;;30.85;3.45;;;6.70;99.90;;;;;;5004032;28;20049;-73
2021/03/12 00:05:31;;;;;;;18.40;2.65;;;6.60;99.90;;;;;;4972335;28;20441;-73
2021/03/12 00:07:56;;;;;;;19.73;3.30;;;6.70;99.90;;;;;;5004701;28;20111;-71
2021/03/12 00:10:25;;;;;;;19.58;2.83;;;6.60;99.90;;;;;;5000799;28;20112;-73
2021/03/12 00:12:51;;;;;;;16.70;4.25;;;6.60;99.90;;;;;;5005641;28;20049;-72
2021/03/12 00:15:19;;;;;;;23.92;3.88;;;6.70;99.90;;;;;;5000832;28;20489;-72
2021/03/12 00:17:45;;;;;;;20.23;3.30;;;6.70;99.90;;;;;;5004689;28;20049;-72
2021/03/12 00:20:17;;;;;;;23.65;2.97;;;6.70;99.90;;;;;;5000692;28;20100;-72
2021/03/12 00:22:44;;;;;;;24.92;2.90;;;6.70;99.90;;;;;;4985262;28;20731;-72
2021/03/12 00:25:14;;;;;;;23.50;3.92;;;6.70;99.90;;;;;;4986384;28;20089;-72
2021/03/12 00:27:41;;;;;;;22.55;3.85;;;6.80;99.90;;;;;;4985586;28;20506;-73
2021/03/12 00:30:08;;;;;;;17.73;3.10;;;6.80;99.90;;;;;;4989325;28;20502;-73
2021/03/12 00:32:34;;;;;;;24.33;4.07;;;6.80;99.90;;;;;;5003770;28;20517;-72
2021/03/12 00:35:00;;;;;;;22.30;3.58;;;6.90;99.90;;;;;;5001414;28;20125;-71
2021/03/12 00:37:26;;;;;;;18.95;3.10;;;6.90;99.90;;;;;;5004902;28;20133;-72
2021/03/12 00:39:51;;;;;;;20.20;3.22;;;6.90;99.90;;;;;;5001089;28;20049;-71
2021/03/12 00:42:17;;;;;;;18.75;3.53;;;6.90;99.90;;;;;;5004725;28;20092;-73
2021/03/12 00:44:43;;;;;;;20.15;2.88;;;6.90;99.90;;;;;;5001297;28;20078;-72
2021/03/12 00:47:09;;;;;;;19.60;3.42;;;6.80;99.90;;;;;;5003363;28;20562;-71
2021/03/12 00:49:35;;;;;;;21.42;3.75;;;6.70;99.90;;;;;;5003483;28;20046;-72
2021/03/12 00:52:00;;;;;;;17.60;2.70;;;6.80;99.90;;;;;;5002708;28;20060;-72
2021/03/12 00:54:27;;;;;;;19.23;3.20;;;6.70;99.90;;;;;;5007162;28;20096;-72
2021/03/12 00:56:53;;;;;;;19.20;3.38;;;6.70;99.90;;;;;;5004330;28;20081;-71
2021/03/12 00:59:18;;;;;;;16.05;3.60;;;6.70;99.90;;;;;;5008435;28;20056;-71
2021/03/12 01:01:45;;;;;;;20.80;3.15;;;6.70;99.90;;;;;;5001786;28;20037;-71
2021/03/12 01:04:10;;;;;;;18.55;3.15;;;6.70;99.90;;;;;;5008790;28;20069;-72
2021/03/12 01:06:36;;;;;;;29.33;3.30;;;6.60;99.90;;;;;;5002992;28;20092;-71
2021/03/12 01:09:03;;;;;;;22.42;3.70;;;6.60;99.90;;;;;;5008888;28;20050;-71
2021/03/12 01:11:29;;;;;;;21.55;3.60;;;6.60;99.90;;;;;;5000631;28;20105;-72
2021/03/12 01:13:54;;;;;;;15.18;3.92;;;6.60;99.90;;;;;;5009238;28;20117;-72
2021/03/12 01:16:20;;;;;;;28.20;4.25;;;6.50;99.90;;;;;;5005164;28;20092;-72
2021/03/12 01:18:46;;;;;;;15.73;3.97;;;6.50;99.90;;;;;;5007809;28;20060;-73
2021/03/12 01:21:12;;;;;;;30.52;4.25;;;6.50;99.90;;;;;;4987542;28;20065;-70
2021/03/12 01:23:38;;;;;;;25.58;3.50;;;6.50;99.90;;;;;;5000732;28;20046;-72
2021/03/12 01:26:03;;;;;;;14.68;3.30;;;6.40;99.90;;;;;;4998839;28;20483;-73
2021/03/12 01:28:29;;;;;;;22.25;3.65;;;6.40;99.90;;;;;;5003613;28;20050;-71
2021/03/12 01:30:55;;;;;;;19.75;3.38;;;6.30;99.90;;;;;;4996611;28;20038;-73
2021/03/12 01:33:20;;;;;;;22.30;3.88;;;6.30;99.90;;;;;;5004085;28;20095;-71
2021/03/12 01:35:46;;;;;;;20.80;3.00;;;6.30;99.90;;;;;;4995043;28;20379;-72
2021/03/12 01:38:12;;;;;;;16.77;4.15;;;6.30;99.90;;;;;;5006107;28;20430;-71
2021/03/12 01:40:42;;;;;;;12.95;3.28;;;6.30;99.90;;;;;;4993414;28;20057;-71
2021/03/12 01:43:07;;;;;;;17.30;3.03;;;6.30;99.90;;;;;;5006564;28;20502;-72
2021/03/12 01:45:44;;;;;;;20.27;3.03;;;6.30;99.90;;;;;;4991151;28;20038;-72
2021/03/12 01:48:25;;;;;;;24.98;3.22;;;6.20;99.90;;;;;;5006892;28;20073;-72
2021/03/12 01:50:58;;;;;;;15.98;3.10;;;6.20;99.90;;;;;;5007475;28;20048;-72
2021/03/12 01:53:25;;;;;;;16.88;3.33;;;6.20;99.90;;;;;;4986154;28;20121;-71
2021/03/12 01:55:53;;;;;;;35.92;5.10;;;6.20;99.90;;;;;;4997436;28;20526;-71
2021/03/12 01:58:20;;;;;;;24.88;2.95;;;6.20;99.90;;;;;;5006679;28;20082;-74
2021/03/12 02:00:46;;;;;;;25.83;3.38;;;6.20;99.90;;;;;;5006374;28;20112;-71
2021/03/12 02:03:15;;;;;;;14.70;3.15;;;6.10;99.90;;;;;;5005596;28;20061;-72
2021/03/12 02:05:41;;;;;;;20.83;4.63;;;6.10;99.90;;;;;;5006269;28;20042;-72
2021/03/12 02:08:07;;;;;;;18.95;3.60;;;6.10;99.90;;;;;;5005147;28;20056;-71
2021/03/12 02:10:35;;;;;;;27.05;3.90;;;6.10;99.90;;;;;;4996222;28;20045;-71
2021/03/12 02:13:09;;;;;;;17.17;3.58;;;6.10;99.90;;;;;;5006197;28;20076;-71
2021/03/12 02:15:56;;;;;;;15.82;2.67;;;6.10;99.90;;;;;;5006263;28;20038;-72
2021/03/12 02:18:34;;;;;;;17.58;4.05;;;6.10;99.90;;;;;;4999271;28;20703;-72
2021/03/12 02:21:10;;;;;;;25.85;3.83;;;6.00;99.90;;;;;;4999304;28;20165;-72
2021/03/12 02:23:51;;;;;;;25.05;3.88;;;6.10;99.90;;;;;;5005704;28;20053;-72
2021/03/12 02:26:43;;;;;;;17.77;3.00;;;6.00;99.90;;;;;;5006653;28;20080;-73
2021/03/12 02:29:19;;;;;;;23.52;4.43;;;6.00;99.90;;;;;;4993771;28;20057;-72
2021/03/12 02:31:46;;;;;;;24.23;3.15;;;6.00;99.90;;;;;;5002114;28;20050;-73
2021/03/12 02:34:15;;;;;;;19.25;3.08;;;6.00;99.90;;;;;;4994128;28;20054;-71
2021/03/12 02:36:45;;;;;;;25.02;4.13;;;5.90;99.90;;;;;;5006888;28;20525;-72
2021/03/12 02:39:16;;;;;;;24.27;4.20;;;5.90;99.90;;;;;;4999536;28;20046;-72
2021/03/12 02:41:43;;;;;;;19.98;3.15;;;5.90;99.90;;;;;;5007337;28;20124;-73
2021/03/12 02:44:10;;;;;;;16.70;2.95;;;5.80;99.90;;;;;;4983284;28;20034;-72
2021/03/12 02:46:37;;;;;;;22.05;5.20;;;5.80;99.90;;;;;;5005561;28;20118;-72
2021/03/12 02:49:04;;;;;;;18.75;3.72;;;5.80;99.90;;;;;;5000541;28;20339;-71
2021/03/12 02:51:32;;;;;;;15.15;2.65;;;5.80;99.90;;;;;;5007013;28;20120;-73
2021/03/12 02:53:58;;;;;;;29.83;3.40;;;5.80;99.90;;;;;;5000407;28;20129;-72
2021/03/12 02:56:24;;;;;;;23.48;3.33;;;5.80;99.90;;;;;;5006070;28;20070;-71
2021/03/12 02:58:50;;;;;;;17.10;3.30;;;5.80;99.90;;;;;;5000220;28;20092;-71
2021/03/12 03:01:19;;;;;;;31.27;3.58;;;5.80;99.90;;;;;;5005440;28;20080;-73
2021/03/12 03:03:46;;;;;;;25.75;4.30;;;5.80;99.90;;;;;;5005759;28;20045;-72
2021/03/12 03:06:13;;;;;;;27.58;4.50;;;5.70;99.90;;;;;;5006772;28;20124;-71
2021/03/12 03:08:42;;;;;;;21.02;3.58;;;5.70;99.90;;;;;;4999389;28;20085;-71
2021/03/12 03:11:09;;;;;;;24.63;3.83;;;5.80;99.90;;;;;;5006390;28;20045;-72
2021/03/12 03:13:37;;;;;;;20.38;3.25;;;5.70;99.90;;;;;;4999278;28;20042;-72
2021/03/12 03:16:06;;;;;;;28.17;3.72;;;5.80;99.90;;;;;;5004980;28;20046;-72
2021/03/12 03:18:39;;;;;;;22.00;3.00;;;5.80;99.90;;;;;;4999586;28;20068;-71
2021/03/12 03:21:06;;;;;;;;;;;5.80;99.90;;;;;;5006578;28;20057;-72
2021/03/12 03:23:38;;;;;;;22.60;3.47;;;5.80;99.90;;;;;;4999113;28;20388;-73
2021/03/12 03:26:05;;;;;;;21.05;3.65;;;5.70;99.90;;;;;;4986555;28;20050;-72
2021/03/12 03:28:31;;;;;;;19.10;3.45;;;5.70;99.90;;;;;;4986725;28;20117;-72
2021/03/12 03:30:58;;;;;;;26.48;4.35;;;5.70;99.90;;;;;;5003714;28;20149;-72
2021/03/12 03:33:24;;;;;;;24.95;3.42;;;5.70;99.90;;;;;;4984969;28;20104;-72
2021/03/12 03:35:49;;;;;;;17.92;3.30;;;5.70;99.90;;;;;;5005703;28;20054;-72
2021/03/12 03:38:15;;;;;;;20.27;3.85;;;5.70;99.90;;;;;;5002829;28;20125;-72
2021/03/12 03:40:40;;;;;;;18.33;3.05;;;5.80;99.90;;;;;;5005301;28;20487;-71
2021/03/12 03:43:07;;;;;;;15.52;2.70;;;5.80;99.90;;;;;;4984343;28;20134;-71
2021/03/12 03:45:34;;;;;;;19.27;3.33;;;5.70;99.90;;;;;;4985143;28;20385;-73
2021/03/12 03:48:01;;;;;;;21.10;3.90;;;5.70;99.90;;;;;;5003486;28;20092;-71
2021/03/12 03:50:28;;;;;;;19.65;3.60;;;5.70;99.90;;;;;;5001813;28;20045;-72
2021/03/12 03:52:55;;;;;;;18.67;3.35;;;5.70;99.90;;;;;;5004046;28;20056;-72
2021/03/12 03:55:25;;;;;;;20.33;3.10;;;5.70;99.90;;;;;;5005339;28;20050;-72
2021/03/12 03:57:52;;;;;;;20.42;2.80;;;5.60;99.90;;;;;;5005070;28;20052;-72
2021/03/12 04:00:18;;;;;;;20.25;2.65;;;5.60;99.90;;;;;;5002357;28;20069;-72
2021/03/12 04:02:45;;;;;;;23.10;3.33;;;5.70;99.90;;;;;;5005284;28;20051;-71
2021/03/12 04:05:12;;;;;;;21.88;3.22;;;5.60;99.90;;;;;;5003615;28;20453;-71
2021/03/12 04:07:39;;;;;;;14.27;2.70;;;5.70;99.90;;;;;;5005250;28;20077;-72
2021/03/12 04:10:06;;;;;;;14.82;2.90;;;5.60;99.90;;;;;;5002100;28;20049;-71
2021/03/12 04:12:33;;;;;;;18.52;3.25;;;5.70;99.90;;;;;;5006114;28;20065;-70
2021/03/12 04:14:59;;;;;;;14.90;2.53;;;5.60;99.90;;;;;;5001802;28;20052;-71
2021/03/12 04:17:25;;;;;;;15.02;2.42;;;5.60;99.90;;;;;;5005024;28;20042;-73
2021/03/12 04:19:53;;;;;;;17.75;3.08;;;5.60;99.90;;;;;;4990921;28;20109;-72
2021/03/12 04:22:19;;;;;;;14.18;2.17;;;5.60;99.90;;;;;;4989253;28;20057;-73
2021/03/12 04:24:44;;;;;;;20.77;3.45;;;5.50;99.90;;;;;;4991673;28;20056;-72
2021/03/12 04:27:12;;;;;;;20.23;3.45;;;5.60;99.90;;;;;;4986910;28;20101;-71
2021/03/12 04:29:38;;;;;;;18.50;3.03;;;5.50;99.90;;;;;;4996021;28;20488;-71
2021/03/12 04:32:05;;;;;;;16.98;4.30;;;5.60;99.90;;;;;;4988957;28;20054;-72
2021/03/12 04:34:30;;;;;;;32.10;3.97;;;5.60;99.90;;;;;;4995912;28;20046;-72
2021/03/12 04:36:56;;;;;;;21.02;3.83;;;5.60;99.90;;;;;;4990346;28;20052;-71
2021/03/12 04:39:23;;;;;;;28.52;4.13;;;5.60;99.90;;;;;;4995302;28;20438;-71
2021/03/12 04:41:49;;;;;;;24.42;3.10;;;5.60;99.90;;;;;;4989604;28;20046;-73
2021/03/12 04:44:16;;;;;;;19.90;3.90;;;5.70;99.90;;;;;;5001920;28;20038;-72
2021/03/12 04:46:41;;;;;;;18.85;3.30;;;5.70;99.90;;;;;;5008150;28;20406;-73
2021/03/12 04:49:09;;;;;;;20.83;3.30;;;5.70;99.90;;;;;;4999907;28;20030;-71
2021/03/12 04:51:39;;;;;;;24.30;2.78;;;5.70;99.90;;;;;;4989625;28;20046;-71
2021/03/12 04:54:09;;;;;;;16.55;3.15;;;5.60;99.90;;;;;;4989906;28;20129;-71
2021/03/12 04:56:36;;;;;;;26.08;4.50;;;5.70;99.90;;;;;;4971511;28;20073;-72
2021/03/12 04:59:03;;;;;;;23.38;4.20;;;5.70;99.90;;;;;;5006748;28;20044;-71
2021/03/12 05:01:29;;;;;;;23.15;3.97;;;5.70;99.90;;;;;;5008056;28;20054;-71
2021/03/12 05:03:56;;;;;;;19.63;2.97;;;5.70;99.90;;;;;;5002234;28;20038;-72
2021/03/12 05:06:22;;;;;;;25.85;3.78;;;5.80;99.90;;;;;;4989214;28;20038;-72
2021/03/12 05:08:48;;;;;;;23.13;3.63;;;5.70;99.90;;;;;;4991348;28;20057;-73
2021/03/12 05:11:14;;;;;;;21.25;3.00;;;5.60;99.90;;;;;;4988856;28;20034;-73
2021/03/12 05:13:40;;;;;;;20.77;3.20;;;5.70;99.90;;;;;;4995460;28;20399;-70
2021/03/12 05:16:06;;;;;;;18.25;3.03;;;5.70;99.90;;;;;;4988479;28;20054;-72
2021/03/12 05:18:32;;;;;;;25.70;4.95;;;5.70;99.90;;;;;;4995121;28;20038;-71
2021/03/12 05:20:58;;;;;;;22.80;3.35;;;5.70;99.90;;;;;;4989977;28;20057;-72
2021/03/12 05:23:23;;;;;;;28.17;3.22;;;5.70;99.90;;;;;;4995815;28;20050;-72
2021/03/12 05:25:50;;;;;;;22.52;4.32;;;5.70;99.90;;;;;;4989045;28;20050;-72
2021/03/12 05:28:17;;;;;;;20.75;3.22;;;5.70;99.90;;;;;;4994932;28;20043;-73
2021/03/12 05:30:42;;;;;;;20.85;3.45;;;5.80;99.90;;;;;;4970633;28;20510;-71
2021/03/12 05:33:08;;;;;;;15.95;3.08;;;5.80;99.90;;;;;;4999886;28;20514;-72
2021/03/12 05:35:34;;;;;;;33.78;3.97;;;5.70;99.90;;;;;;4988303;28;20050;-72
2021/03/12 05:38:00;;;;;;;16.83;3.72;;;5.80;99.90;;;;;;5000014;28;20613;-71
2021/03/12 05:40:26;;;;;;;14.80;3.28;;;5.70;99.90;;;;;;4986716;28;20100;-71
2021/03/12 05:42:54;;;;;;;22.95;4.40;;;5.80;99.90;;;;;;4999223;28;20077;-72
2021/03/12 05:45:21;;;;;;;22.73;3.53;;;5.70;99.90;;;;;;4970482;28;20065;-71
2021/03/12 05:47:47;;;;;;;25.13;5.25;;;5.80;99.90;;;;;;4999057;28;20037;-72
2021/03/12 05:50:14;;;;;;;24.65;3.97;;;5.70;99.90;;;;;;4989090;28;20043;-72
2021/03/12 05:52:41;;;;;;;23.40;5.10;;;5.70;99.90;;;;;;4998173;28;20058;-72
2021/03/12 05:55:07;;;;;;;27.25;3.45;;;5.70;99.90;;;;;;5007352;28;20038;-72
2021/03/12 05:57:35;;;;;;;22.48;3.00;;;5.80;99.90;;;;;;5007852;28;20046;-73
2021/03/12 06:00:02;;;;;;;23.27;4.85;;;5.80;99.90;;;;;;4989026;28;20046;-72
2021/03/12 06:02:29;;;;;;;15.38;3.40;;;5.80;99.90;;;;;;4999469;28;20042;-72
2021/03/12 06:04:54;;;;;;;19.27;3.55;;;5.80;99.90;;;;;;4973465;28;20366;-71
2021/03/12 06:07:20;;;;;;;26.15;3.33;;;5.80;99.90;;;;;;4997040;28;20046;-72
2021/03/12 06:09:46;;;;;;;16.73;2.90;;;5.80;99.90;;;;;;4974578;28;20050;-72
2021/03/12 06:12:13;;;;;;;19.90;3.60;;;5.80;99.90;;;;;;4996409;28;20084;-72
2021/03/12 06:14:52;;;;;;;23.05;5.47;;;5.80;99.90;;;;;;4992345;28;20503;-73
2021/03/12 06:17:39;;;;;;;29.60;3.50;;;5.90;99.90;;;;;;4996647;28;20045;-72
2021/03/12 06:20:11;;;;;;;15.57;3.30;;;5.80;99.90;;;;;;5006853;28;20053;-72
2021/03/12 06:22:46;;;;;;;23.92;4.35;;;5.80;99.90;;;;;;5003958;28;20072;-72
2021/03/12 06:25:17;;;;;;;26.25;3.35;;;5.80;99.90;;;;;;4987232;28;20125;-71
2021/03/12 06:27:44;;;;;;;20.35;4.35;;;5.80;99.90;;;;;;5006225;28;20291;-72
2021/03/12 06:30:14;;;;;;;23.70;3.55;;;5.90;99.90;;;;;;5006421;28;20084;-72
2021/03/12 06:32:51;;;;;;;21.05;3.63;;;5.90;99.90;;;;;;5000782;28;20393;-72
2021/03/12 06:35:22;;;;;;;26.30;3.58;;;5.80;99.90;;;;;;5007178;28;20050;-73
2021/03/12 06:37:49;;;;;;;20.05;3.60;;;5.80;99.90;;;;;;4987221;28;20047;-72
2021/03/12 06:40:27;;;;;;;31.30;4.22;;;5.90;99.90;;;;;;4995917;28;20034;-72
2021/03/12 06:42:59;;;;;;;28.95;5.07;;;5.80;99.90;;;;;;5007594;28;20594;-71
2021/03/12 06:45:45;;;;;;;18.52;4.03;;;5.90;99.90;;;;;;5005172;28;20402;-72
2021/03/12 06:48:23;;;;;;;20.38;4.18;;;5.90;99.90;;;;;;4970453;28;20050;-73
2021/03/12 06:51:00;;;;;;;23.13;3.00;;;6.10;99.90;;;;;;4996896;28;20034;-73
2021/03/12 06:53:35;;;;;;;19.67;3.38;;;6.10;99.90;;;;;;4993955;28;20049;-71
2021/03/12 06:56:03;;;;;;;25.98;3.67;;;6.00;99.90;;;;;;5004530;28;20057;-72
2021/03/12 06:58:30;;;;;;;16.73;3.40;;;6.10;99.90;;;;;;5006789;28;20045;-71
2021/03/12 07:00:56;;;;;;;19.92;3.72;;;6.20;99.90;;;;;;5004352;28;20076;-71
2021/03/12 07:03:29;;;;;;;25.08;4.03;;;6.20;99.90;;;;;;4986393;28;20336;-71
2021/03/12 07:05:55;;;;;;;;;;;6.30;99.90;;;;;;4997576;28;20093;-72
2021/03/12 07:08:29;;;;;;;20.77;3.33;;;6.30;99.90;;;;;;4986811;28;20345;-71
2021/03/12 07:10:55;;;;;;;24.75;3.35;;;6.30;99.90;;;;;;4989528;28;20130;-71
2021/03/12 07:13:22;;;;;;;15.93;3.90;;;6.30;99.90;;;;;;5000969;28;20056;-71
2021/03/12 07:15:51;;;;;;;25.35;4.78;;;6.30;99.90;;;;;;5003798;28;20133;-73
2021/03/12 07:18:18;;;;;;;18.60;3.38;;;6.30;99.90;;;;;;5005133;28;20510;-71
2021/03/12 07:20:43;;;;;;;22.83;3.53;;;6.30;99.90;;;;;;5001378;28;20160;-71
2021/03/12 07:23:15;;;;;;;28.00;3.95;;;6.40;99.90;;;;;;5002956;28;20050;-70
2021/03/12 07:25:43;;;;;;;22.17;4.25;;;6.30;99.90;;;;;;4994916;28;20042;-71
2021/03/12 07:28:14;;;;;;;20.15;3.72;;;6.40;99.90;;;;;;4999484;28;20095;-72
2021/03/12 07:30:42;;;;;;;28.48;3.22;;;6.60;99.90;;;;;;4984878;28;20046;-71
2021/03/12 07:33:09;;;;;;;19.98;4.38;;;6.50;99.90;;;;;;5005039;28;20048;-71
2021/03/12 07:35:37;;;;;;;29.08;4.00;;;6.40;99.90;;;;;;5004968;28;20088;-72
2021/03/12 07:38:06;;;;;;;27.05;4.63;;;6.40;99.90;;;;;;4988097;28;20113;-72
2021/03/12 07:40:37;;;;;;;27.67;4.97;;;6.50;99.90;;;;;;4999335;28;20054;-73
2021/03/12 07:43:05;;;;;;;22.27;3.20;;;6.50;99.90;;;;;;5005090;28;20054;-71
2021/03/12 07:45:31;;;;;;;32.13;5.68;;;6.60;99.90;;;;;;5004449;28;20052;-73
2021/03/12 07:47:57;;;;;;;28.10;4.50;;;6.80;99.90;;;;;;5003052;28;20707;-72
2021/03/12 07:50:24;;;;;;;21.55;4.13;;;6.90;99.90;;;;;;5004202;28;20377;-73
2021/03/12 07:52:51;;;;;;;23.75;4.13;;;7.20;99.90;;;;;;4987084;28;20384;-71
2021/03/12 07:55:35;;;;;;;33.00;5.40;;;7.10;99.90;;;;;;5005049;28;20257;-72
2021/03/12 07:58:01;;;;;;;34.38;6.00;;;7.10;99.90;;;;;;4987556;28;20062;-72
2021/03/12 08:00:27;;;;;;;28.75;4.82;;;7.10;99.90;;;;;;5003410;28;20358;-72
2021/03/12 08:02:56;;;;;;;22.13;5.15;;;7.00;99.90;;;;;;5004008;28;20050;-75
2021/03/12 08:05:35;;;;;;;34.53;4.75;;;7.00;99.90;;;;;;5005637;28;20442;-73
2021/03/12 08:08:03;;;;;;;34.47;4.85;;;6.90;99.90;;;;;;5005233;28;20050;-72
2021/03/12 08:10:29;;;;;;;25.75;4.63;;;6.90;99.90;;;;;;5004396;28;20148;-71
2021/03/12 08:12:55;;;;;;;36.10;5.90;;;6.90;99.90;;;;;;5004659;28;20129;-73
2021/03/12 08:15:22;;;;;;;29.98;4.57;;;6.90;99.90;;;;;;5004409;28;20103;-72
2021/03/12 08:17:57;;;;;;;26.40;4.07;;;6.90;99.90;;;;;;5004525;28;20479;-72
2021/03/12 08:20:26;;;;;;;39.08;6.85;;;7.00;99.90;;;;;;5005671;28;20431;-72
2021/03/12 08:22:56;;;;;;;23.08;4.10;;;7.10;99.90;;;;;;4985510;28;20051;-72
2021/03/12 08:25:35;;;;;;;28.20;4.47;;;7.00;99.90;;;;;;4994490;28;20050;-72
2021/03/12 08:28:07;;;;;;;28.35;4.40;;;7.10;99.90;;;;;;5004596;28;20068;-71
2021/03/12 08:30:33;;;;;;;29.02;4.80;;;7.20;99.90;;;;;;4979346;28;20076;-73
2021/03/12 08:33:04;;;;;;;26.83;4.07;;;7.20;99.90;;;;;;4999662;28;20495;-72
2021/03/12 08:35:33;;;;;;;27.30;5.20;;;7.10;99.90;;;;;;5004802;28;20133;-71
2021/03/12 08:38:00;;;;;;;29.17;6.07;;;7.10;99.90;;;;;;5002342;28;20042;-71
2021/03/12 08:40:29;;;;;;;28.15;4.82;;;7.00;99.90;;;;;;5003178;28;20511;-71
2021/03/12 08:43:03;;;;;;;26.92;5.20;;;7.00;99.90;;;;;;5004266;28;20061;-73
2021/03/12 08:45:42;;;;;;;33.75;5.57;;;7.00;99.90;;;;;;5000600;28;20080;-72
2021/03/12 08:48:12;;;;;;;31.58;5.43;;;7.00;99.90;;;;;;5004320;28;20045;-73
2021/03/12 08:50:56;;;;;;;19.98;4.32;;;7.10;99.90;;;;;;5000745;28;20072;-73
2021/03/12 08:53:32;;;;;;;28.20;4.80;;;7.00;99.90;;;;;;4998022;28;20092;-71
2021/03/12 08:56:01;;;;;;;31.98;4.82;;;7.10;99.90;;;;;;5004238;28;20050;-72
2021/03/12 08:58:29;;;;;;;27.33;5.03;;;7.10;99.90;;;;;;5003880;28;20142;-72
2021/03/12 09:01:13;;;;;;;27.05;3.80;;;7.20;99.90;;;;;;5001981;28;21567;-73
2021/03/12 09:04:01;;;;;;;23.90;3.83;;;7.10;99.90;;;;;;4987712;28;20085;-72
2021/03/12 09:06:46;;;;;;;38.25;5.57;;;7.20;99.90;;;;;;4988127;28;20150;-73
2021/03/12 09:09:32;;;;;;;24.05;3.90;;;7.20;99.90;;;;;;4987915;28;20053;-72
2021/03/12 09:12:18;;;;;;;24.42;5.22;;;7.50;99.90;;;;;;4973753;28;20459;-73
2021/03/12 09:14:44;;;;;;;26.40;4.80;;;7.40;99.90;;;;;;5002067;28;20045;-72
2021/03/12 09:17:09;;;;;;;43.08;7.95;;;7.50;99.90;;;;;;5008427;28;20046;-72
2021/03/12 09:19:35;;;;;;;27.33;5.07;;;7.70;99.90;;;;;;5001955;28;20104;-73
2021/03/12 09:22:01;;;;;;;21.67;3.95;;;7.60;99.90;;;;;;5003668;28;20054;-73
2021/03/12 09:24:28;;;;;;;32.00;5.30;;;7.70;99.90;;;;;;5006393;28;20049;-72
2021/03/12 09:26:53;;;;;;;29.55;5.15;;;7.50;99.90;;;;;;5007801;28;20069;-72
2021/03/12 09:29:19;;;;;;;24.23;5.43;;;7.50;99.90;;;;;;4992403;28;20119;-74
2021/03/12 09:31:44;;;;;;;28.20;4.30;;;7.40;99.90;;;;;;5007530;28;20049;-74
2021/03/12 09:34:15;;;;;;;21.73;4.20;;;7.40;99.90;;;;;;5007688;28;20038;-71
2021/03/12 09:36:46;;;;;;;18.17;3.78;;;7.10;99.90;;;;;;5007258;28;20050;-72
2021/03/12 09:39:20;;;;;;;23.30;4.78;;;7.00;99.90;;;;;;5006395;28;20133;-73
2021/03/12 09:41:58;;;;;;;15.20;2.63;;;6.70;99.90;;;;;;5006401;28;20498;-72
2021/03/12 09:44:25;;;;;;;12.80;3.30;;;6.60;99.90;;;;;;4983196;28;20052;-72
2021/03/12 09:46:57;;;;;;;11.75;2.10;;;6.30;99.90;;;;;;5005886;28;20073;-71
2021/03/12 09:49:25;;;;;;;9.68;1.90;;;6.20;99.90;;;;;;4997958;28;20544;-73
2021/03/12 09:51:54;;;;;;;5.63;1.83;;;6.00;99.90;;;;;;5004753;28;20090;-71
2021/03/12 09:54:20;;;;;;;11.48;2.10;;;6.00;99.90;;;;;;5006440;28;20395;-72
2021/03/12 09:56:49;;;;;;;14.85;2.53;;;6.10;99.90;;;;;;5007190;28;20053;-73
2021/03/12 09:59:18;;;;;;;10.18;2.05;;;6.10;99.90;;;;;;5005562;28;20042;-76
2021/03/12 10:01:44;;;;;;;11.35;2.30;;;6.40;99.90;;;;;;5002051;28;20065;-72
2021/03/12 10:04:32;;;;;;;16.65;3.38;;;6.40;99.90;;;;;;4989082;28;20046;-73
2021/03/12 10:07:34;;;;;;;20.27;4.32;;;6.40;99.90;;;;;;4970276;28;20050;-73
2021/03/12 10:10:29;;;;;;;18.42;3.53;;;6.60;99.90;;;;;;5004673;28;20097;-72
2021/03/12 10:12:57;;;;;;;35.28;5.50;;;6.70;99.90;;;;;;5003552;28;20405;-73
2021/03/12 10:15:25;;;;;;;36.17;4.65;;;7.00;99.90;;;;;;5005305;28;20519;-74
2021/03/12 10:17:51;;;;;;;34.95;6.90;;;7.10;99.90;;;;;;5003825;28;20236;-72
2021/03/12 10:20:22;;;;;;;38.63;6.32;;;7.20;99.90;;;;;;4991528;28;20057;-72
2021/03/12 10:22:59;;;;;;;35.90;6.50;;;7.40;99.90;;;;;;4996378;28;20049;-72
2021/03/12 10:25:39;;;;;;;35.42;6.13;;;7.40;99.90;;;;;;5006668;28;20046;-73
2021/03/12 10:28:18;;;;;;;32.03;4.65;;;7.50;99.90;;;;;;4996799;28;20041;-72
2021/03/12 10:30:49;;;;;;;39.83;6.15;;;7.70;99.90;;;;;;5004434;28;20050;-72
2021/03/12 10:33:23;;;;;;;26.52;4.63;;;7.90;99.90;;;;;;5005522;28;20081;-72
2021/03/12 10:35:54;;;;;;;31.23;5.43;;;7.90;99.90;;;;;;5006980;28;20049;-73
2021/03/12 10:38:27;;;;;;;39.15;6.50;;;7.80;99.90;;;;;;5005495;28;20049;-72
2021/03/12 10:41:20;;;;;;;30.20;5.13;;;7.80;99.90;;;;;;5004873;28;20620;-73
2021/03/12 10:44:05;;;;;;;36.13;6.68;;;7.90;99.90;;;;;;4996288;28;20054;-72
2021/03/12 10:46:31;;;;;;;34.72;6.75;;;7.90;99.90;;;;;;4999336;28;20053;-72
2021/03/12 10:48:56;;;;;;;25.75;4.63;;;8.00;99.90;;;;;;5003144;28;20030;-73
2021/03/12 10:51:33;;;;;;;29.63;5.57;;;8.20;99.90;;;;;;5003697;28;20341;-71
2021/03/12 10:53:59;;;;;;;34.38;6.40;;;8.60;99.90;;;;;;4986863;28;20068;-72
2021/03/12 10:56:26;;;;;;;25.98;4.90;;;8.90;99.90;;;;;;5004379;28;20483;-72
2021/03/12 10:58:53;;;;;;;36.28;6.82;;;9.00;99.90;;;;;;5004626;28;20049;-73
2021/03/12 11:01:23;;;;;;;23.33;4.70;;;8.40;99.90;;;;;;5005993;28;20784;-72
2021/03/12 11:03:49;;;;;;;27.77;6.25;;;8.40;99.90;;;;;;5005358;28;20086;-72
2021/03/12 11:06:17;;;;;;;31.33;4.97;;;8.30;99.90;;;;;;4971183;28;20053;-72
2021/03/12 11:08:43;;;;;;;25.20;4.32;;;8.30;99.90;;;;;;4992084;28;20053;-71
2021/03/12 11:11:11;;;;;;;24.90;4.70;;;8.50;99.90;;;;;;5004046;28;20259;-73
2021/03/12 11:13:40;;;;;;;27.67;6.03;;;8.70;99.90;;;;;;5005387;28;20168;-72
2021/03/12 11:16:07;;;;;;;28.80;5.32;;;8.50;99.90;;;;;;4986325;28;20100;-73
2021/03/12 11:18:33;;;;;;;25.20;4.60;;;8.40;99.90;;;;;;4985029;28;20038;-73
2021/03/12 11:20:59;;;;;;;31.08;5.53;;;8.40;99.90;;;;;;5004006;28;20057;-72
2021/03/12 11:23:25;;;;;;;24.48;4.30;;;8.30;99.90;;;;;;4992257;28;20104;-72
2021/03/12 11:25:51;;;;;;;28.88;5.28;;;8.20;99.90;;;;;;5004216;28;20041;-71
2021/03/12 11:28:17;;;;;;;21.90;5.28;;;8.20;99.90;;;;;;5004401;28;20038;-73
2021/03/12 11:30:42;;;;;;;27.42;4.63;;;8.20;99.90;;;;;;4998900;28;20048;-74
2021/03/12 11:33:08;;;;;;;16.33;3.78;;;8.30;99.90;;;;;;5003949;28;20046;-73
2021/03/12 11:35:34;;;;;;;26.23;4.63;;;8.20;99.90;;;;;;5003929;28;20053;-72
2021/03/12 11:38:00;;;;;;;22.42;4.72;;;8.40;99.90;;;;;;4994527;28;20054;-72
2021/03/12 11:40:26;;;;;;;15.68;4.65;;;8.40;99.90;;;;;;5000255;28;20457;-72
2021/03/12 11:42:52;;;;;;;23.02;4.65;;;8.20;99.90;;;;;;5005833;28;20362;-72
2021/03/12 11:45:18;;;;;;;16.70;3.70;;;8.30;99.90;;;;;;5004655;28;20075;-72
2021/03/12 11:47:45;;;;;;;24.25;4.80;;;8.50;99.90;;;;;;5005157;28;20316;-71
2021/03/12 11:50:14;;;;;;;23.25;4.43;;;8.40;99.90;;;;;;5004801;28;20129;-74
2021/03/12 11:52:39;;;;;;;25.50;4.32;;;8.40;99.90;;;;;;5004642;28;20054;-72
2021/03/12 11:55:07;;;;;;;16.27;4.82;;;8.30;99.90;;;;;;5005824;28;20057;-73
2021/03/12 11:57:33;;;;;;;20.45;3.97;;;8.20;99.90;;;;;;5005081;28;20046;-73
2021/03/12 11:59:59;;;;;;;17.00;4.63;;;8.40;99.90;;;;;;5004507;28;20050;-71
2021/03/12 12:02:25;;;;;;;28.75;6.13;;;8.10;99.90;;;;;;5005139;28;20607;-72
2021/03/12 12:04:51;;;;;;;26.45;5.95;;;8.10;99.90;;;;;;5004875;28;20279;-73
2021/03/12 12:07:17;;;;;;;20.63;4.95;;;8.20;99.90;;;;;;5005507;28;20060;-73
2021/03/12 12:09:43;;;;;;;24.10;5.22;;;8.40;99.90;;;;;;5004759;28;20495;-73
2021/03/12 12:12:11;;;;;;;21.30;4.28;;;8.50;99.90;;;;;;5005078;28;20049;-72
2021/03/12 12:14:37;;;;;;;26.70;6.18;;;8.70;99.90;;;;;;5003967;28;20052;-73
2021/03/12 12:17:04;;;;;;;27.55;4.65;;;8.50;99.90;;;;;;5005412;28;20120;-72
2021/03/12 12:19:31;;;;;;;27.23;4.57;;;8.50;99.90;;;;;;4989482;28;20084;-72
2021/03/12 12:21:56;;;;;;;20.00;4.07;;;8.60;99.90;;;;;;5002749;28;20046;-72
2021/03/12 12:24:22;;;;;;;20.48;3.58;;;8.70;99.90;;;;;;5004920;28;20231;-72
2021/03/12 12:26:48;;;;;;;28.85;5.30;;;8.70;99.90;;;;;;5005536;28;20050;-72
2021/03/12 12:29:14;;;;;;;22.05;4.20;;;8.90;99.90;;;;;;5002517;28;20270;-72
2021/03/12 12:31:39;;;;;;;21.77;4.93;;;8.80;99.90;;;;;;5004665;28;20065;-72
2021/03/12 12:34:05;;;;;;;22.05;4.10;;;8.80;99.90;;;;;;5005139;28;20339;-72
2021/03/12 12:36:32;;;;;;;26.85;4.32;;;8.80;99.90;;;;;;5003225;28;20034;-73
2021/03/12 12:39:01;;;;;;;23.25;4.60;;;9.10;99.90;;;;;;4998569;28;20046;-73
2021/03/12 12:41:26;;;;;;;27.48;5.03;;;9.00;99.90;;;;;;5003807;28;20077;-72
2021/03/12 12:43:52;;;;;;;29.20;4.40;;;8.90;99.90;;;;;;5004047;28;20877;-71
2021/03/12 12:46:19;;;;;;;22.90;4.18;;;9.10;99.90;;;;;;5005002;28;20050;-72
2021/03/12 12:48:45;;;;;;;25.33;5.05;;;9.10;99.90;;;;;;5005019;28;20053;-71
2021/03/12 12:51:11;;;;;;;26.92;4.40;;;9.30;99.90;;;;;;5008136;28;20454;-74
2021/03/12 12:53:37;;;;;;;28.30;4.82;;;9.40;99.90;;;;;;5008221;28;20056;-72
2021/03/12 12:56:04;;;;;;;23.58;5.28;;;9.50;99.90;;;;;;5007934;28;20041;-72